KEEN/EEN METAR and TAF weather

Enter ICAO airport designator
Station Type Date Time Source
KEEN METAR 2020/11/27 02:29 UTC NOAA

KEEN 270229Z AUTO 00000KT 1/2SM FG OVC003 06/06 A3000 RMK AO2 PNO $


Station Type Date Time Source
KEEN Decoded METAR 2020/11/27 02:29 UTC NOAA

Keene, Dillant-Hopkins Airport, NH, United States (KEEN) 42-54N 072-16W
Nov 26, 2020 - 09:29 PM EST / 2020.11.27 0229 UTC
Wind: Calm:0
Visibility: 1/2 mile(s):0
Sky conditions: overcast
Weather: fog
Temperature: 42 F (6 C)
Dew Point: 42 F (6 C)
Relative Humidity: 100%
Pressure (altimeter): 30 in. Hg (1015 hPa)
ob: KEEN 270229Z AUTO 00000KT 1/2SM FG OVC003 06/06 A3000 RMK AO2 PNO
cycle: 2

Station Type Date Time Source
KEEN TAF UTC NOAA

Error!

Example: see airport list